createdAt,value
2018-04-28T00:00:39.221Z,0
2018-04-28T00:01:40.651Z,0
2018-04-28T00:02:42.049Z,0
2018-04-28T00:03:43.515Z,0
2018-04-28T00:04:44.978Z,0
2018-04-28T00:05:46.377Z,0
2018-04-28T00:06:47.789Z,0
2018-04-28T00:07:49.186Z,0
2018-04-28T00:08:50.583Z,0
2018-04-28T00:09:52.032Z,0
2018-04-28T00:10:53.510Z,0
2018-04-28T00:11:54.923Z,0
2018-04-28T00:12:56.355Z,0
2018-04-28T00:13:57.795Z,0
2018-04-28T00:14:59.241Z,0
2018-04-28T00:16:00.657Z,0
2018-04-28T00:17:02.095Z,0
2018-04-28T00:18:03.548Z,0
2018-04-28T00:19:05.002Z,0
2018-04-28T00:20:06.417Z,0
2018-04-28T00:21:07.807Z,0
2018-04-28T00:22:09.256Z,0
2018-04-28T00:23:10.669Z,0
2018-04-28T00:24:12.070Z,0
2018-04-28T00:25:13.510Z,0
2018-04-28T00:26:14.970Z,0
2018-04-28T00:27:16.388Z,0
2018-04-28T00:28:17.803Z,0
2018-04-28T00:29:19.194Z,0
2018-04-28T00:30:20.618Z,0
2018-04-28T00:31:22.022Z,0
2018-04-28T00:32:23.497Z,0
2018-04-28T00:33:24.985Z,0
2018-04-28T00:34:26.442Z,0
2018-04-28T00:35:27.914Z,0
2018-04-28T00:36:29.388Z,0
2018-04-28T00:37:30.785Z,0
2018-04-28T00:38:32.232Z,0
2018-04-28T00:39:33.648Z,0
2018-04-28T00:40:35.094Z,0
2018-04-28T00:41:36.517Z,0
2018-04-28T00:42:37.961Z,0
2018-04-28T00:43:39.385Z,0
2018-04-28T00:44:40.827Z,0
2018-04-28T00:45:42.187Z,0
2018-04-28T00:46:43.581Z,0
2018-04-28T00:47:45.002Z,0
2018-04-28T00:48:46.441Z,0
2018-04-28T00:49:47.852Z,0
2018-04-28T00:50:49.283Z,0
2018-04-28T00:51:50.688Z,0
2018-04-28T00:52:52.104Z,0
2018-04-28T00:53:53.525Z,0
2018-04-28T00:54:54.923Z,0
2018-04-28T00:55:56.381Z,0
2018-04-28T00:56:57.803Z,0
2018-04-28T00:57:59.235Z,0
2018-04-28T00:59:00.633Z,0
2018-04-28T01:00:02.077Z,0
2018-04-28T01:01:03.489Z,0
2018-04-28T01:02:04.956Z,0
2018-04-28T01:03:06.380Z,0
2018-04-28T01:04:07.807Z,0
2018-04-28T01:05:09.255Z,0
2018-04-28T01:06:10.650Z,0
2018-04-28T01:07:12.139Z,0
2018-04-28T01:08:13.547Z,0
2018-04-28T01:09:14.995Z,0
2018-04-28T01:10:16.400Z,0
2018-04-28T01:11:17.816Z,0
2018-04-28T01:12:19.261Z,0
2018-04-28T01:13:20.708Z,0
2018-04-28T01:14:22.102Z,0
2018-04-28T01:15:23.519Z,0
2018-04-28T01:16:24.946Z,0
2018-04-28T01:17:26.390Z,0
2018-04-28T01:18:27.845Z,0
2018-04-28T01:19:29.299Z,0
2018-04-28T01:20:30.691Z,0
2018-04-28T01:21:32.100Z,0
2018-04-28T01:22:33.511Z,0
2018-04-28T01:23:35.107Z,0
2018-04-28T01:24:36.530Z,0
2018-04-28T01:25:37.977Z,0
2018-04-28T01:26:39.402Z,0
2018-04-28T01:27:40.809Z,0
2018-04-28T01:28:42.264Z,0
2018-04-28T01:29:43.687Z,0
2018-04-28T01:30:45.089Z,0
2018-04-28T01:31:46.500Z,0
2018-04-28T01:32:47.982Z,0
2018-04-28T01:33:49.411Z,0
2018-04-28T01:34:50.816Z,0
2018-04-28T01:35:52.284Z,0
2018-04-28T01:36:53.712Z,0
2018-04-28T01:37:55.171Z,0
2018-04-28T01:38:56.569Z,0
2018-04-28T01:39:58.012Z,0
2018-04-28T01:40:59.450Z,0
2018-04-28T01:42:00.859Z,0
2018-04-28T01:43:02.326Z,0
2018-04-28T01:44:03.773Z,0
2018-04-28T01:45:05.233Z,0
2018-04-28T01:46:06.676Z,0
2018-04-28T01:47:08.125Z,0
2018-04-28T01:48:09.606Z,0
2018-04-28T01:49:11.035Z,0
2018-04-28T01:50:12.416Z,0
2018-04-28T01:51:13.850Z,0
2018-04-28T01:52:15.272Z,0
2018-04-28T01:53:16.676Z,0
2018-04-28T01:54:18.079Z,0
2018-04-28T01:55:19.515Z,0
2018-04-28T01:56:21.051Z,0
2018-04-28T01:57:22.513Z,0
2018-04-28T01:58:23.939Z,0
2018-04-28T01:59:25.411Z,0
2018-04-28T02:00:26.857Z,0
2018-04-28T02:01:28.302Z,0
2018-04-28T02:02:29.700Z,0
2018-04-28T02:03:31.155Z,0
2018-04-28T02:04:32.576Z,0
2018-04-28T02:05:34.026Z,0
2018-04-28T02:06:35.477Z,0
2018-04-28T02:07:36.921Z,0
2018-04-28T02:08:38.372Z,0
2018-04-28T02:09:39.794Z,0
2018-04-28T02:10:41.193Z,0
2018-04-28T02:11:42.610Z,0
2018-04-28T02:12:44.066Z,0
2018-04-28T02:13:45.506Z,0
2018-04-28T02:14:46.968Z,0
2018-04-28T02:15:48.420Z,0
2018-04-28T02:16:49.880Z,0
2018-04-28T02:17:51.337Z,0
2018-04-28T02:18:52.764Z,0
2018-04-28T02:19:54.193Z,0
2018-04-28T02:20:55.611Z,0
2018-04-28T02:21:57.019Z,0
2018-04-28T02:22:58.490Z,0
2018-04-28T02:23:59.968Z,0
2018-04-28T02:25:01.367Z,0
2018-04-28T02:26:02.819Z,0
2018-04-28T02:27:04.280Z,0
2018-04-28T02:28:05.685Z,0
2018-04-28T02:29:07.116Z,0
2018-04-28T02:30:08.536Z,0
2018-04-28T02:31:09.934Z,0
2018-04-28T02:32:11.358Z,0
2018-04-28T02:33:12.788Z,0
2018-04-28T02:34:14.210Z,0
2018-04-28T02:35:15.642Z,0
2018-04-28T02:36:17.076Z,0
2018-04-28T02:37:18.498Z,0
2018-04-28T02:38:19.933Z,0
2018-04-28T02:39:21.327Z,0
2018-04-28T02:40:22.761Z,0
2018-04-28T02:41:24.213Z,0
2018-04-28T02:42:25.642Z,0
2018-04-28T02:43:27.090Z,0
2018-04-28T02:44:28.514Z,0
2018-04-28T02:45:29.920Z,0
2018-04-28T02:46:31.411Z,0
2018-04-28T02:47:32.837Z,0
2018-04-28T02:48:34.260Z,0
2018-04-28T02:49:35.710Z,0
2018-04-28T02:50:37.131Z,0
2018-04-28T02:51:38.534Z,0
2018-04-28T02:52:39.951Z,0
2018-04-28T02:53:41.378Z,0
2018-04-28T02:54:42.805Z,0
2018-04-28T02:55:44.229Z,0
2018-04-28T02:56:45.673Z,0
2018-04-28T02:57:47.066Z,0
2018-04-28T02:58:48.535Z,0
2018-04-28T02:59:49.925Z,0
2018-04-28T03:00:51.323Z,0
2018-04-28T03:01:52.756Z,0
2018-04-28T03:02:54.149Z,0
2018-04-28T03:03:55.546Z,0
2018-04-28T03:04:56.943Z,0
2018-04-28T03:05:58.430Z,0
2018-04-28T03:06:59.906Z,0
2018-04-28T03:08:01.341Z,0
2018-04-28T03:09:02.821Z,0
2018-04-28T03:10:04.259Z,0
2018-04-28T03:11:05.733Z,0
2018-04-28T03:12:07.211Z,0
2018-04-28T03:13:08.689Z,0
2018-04-28T03:14:10.152Z,0
2018-04-28T03:15:11.607Z,0
2018-04-28T03:16:13.084Z,0
2018-04-28T03:17:14.508Z,0
2018-04-28T03:18:15.959Z,0
2018-04-28T03:19:17.450Z,0
2018-04-28T03:20:18.888Z,0
2018-04-28T03:21:20.348Z,0
2018-04-28T03:22:21.792Z,0
2018-04-28T03:23:23.212Z,0
2018-04-28T03:24:24.716Z,0
2018-04-28T03:25:26.034Z,0
2018-04-28T03:26:27.462Z,0
2018-04-28T03:27:28.898Z,0
2018-04-28T03:28:30.327Z,0
2018-04-28T03:29:31.753Z,0
2018-04-28T03:30:33.223Z,0
2018-04-28T03:31:34.616Z,0
2018-04-28T03:32:36.091Z,4
2018-04-28T03:33:37.583Z,4
2018-04-28T03:34:39.000Z,0
2018-04-28T03:35:40.443Z,4
2018-04-28T03:36:41.903Z,4
2018-04-28T03:37:43.352Z,4
2018-04-28T03:38:44.789Z,4
2018-04-28T03:39:46.188Z,4
2018-04-28T03:40:47.617Z,4
2018-04-28T03:41:49.102Z,8
2018-04-28T03:42:50.599Z,8
2018-04-28T03:43:52.001Z,12
2018-04-28T03:44:53.451Z,12
2018-04-28T03:45:54.899Z,12
2018-04-28T03:46:56.312Z,20
2018-04-28T03:47:57.766Z,20
2018-04-28T03:48:59.251Z,24
2018-04-28T03:50:00.669Z,28
2018-04-28T03:51:02.141Z,32
2018-04-28T03:52:03.595Z,36
2018-04-28T03:53:05.019Z,40
2018-04-28T03:54:06.524Z,48
2018-04-28T03:55:07.935Z,52
2018-04-28T03:56:09.368Z,60
2018-04-28T03:57:10.788Z,64
2018-04-28T03:58:12.201Z,76
2018-04-28T03:59:13.653Z,88
2018-04-28T04:00:15.068Z,100
2018-04-28T04:01:16.506Z,112
2018-04-28T04:02:17.961Z,124
2018-04-28T04:03:19.413Z,140
2018-04-28T04:04:20.872Z,152
2018-04-28T04:05:22.304Z,176
2018-04-28T04:06:23.754Z,192
2018-04-28T04:07:25.181Z,212
2018-04-28T04:08:26.589Z,232
2018-04-28T04:09:28.014Z,256
2018-04-28T04:10:29.427Z,284
2018-04-28T04:11:30.851Z,316
2018-04-28T04:12:32.273Z,352
2018-04-28T04:13:33.679Z,392
2018-04-28T04:14:35.151Z,432
2018-04-28T04:15:36.621Z,468
2018-04-28T04:16:38.032Z,496
2018-04-28T04:17:39.509Z,520
2018-04-28T04:18:40.948Z,560
2018-04-28T04:19:42.373Z,616
2018-04-28T04:20:43.798Z,656
2018-04-28T04:21:45.253Z,688
2018-04-28T04:22:46.675Z,720
2018-04-28T04:23:48.088Z,740
2018-04-28T04:24:49.547Z,776
2018-04-28T04:25:50.969Z,828
2018-04-28T04:26:52.392Z,840
2018-04-28T04:27:53.811Z,856
2018-04-28T04:28:55.301Z,856
2018-04-28T04:29:56.666Z,872
2018-04-28T04:30:58.090Z,904
2018-04-28T04:31:59.580Z,940
2018-04-28T04:33:00.956Z,980
2018-04-28T04:34:02.371Z,1032
2018-04-28T04:35:03.799Z,1096
2018-04-28T04:36:05.271Z,1164
2018-04-28T04:37:06.734Z,1256
2018-04-28T04:38:08.189Z,1292
2018-04-28T04:39:09.636Z,1324
2018-04-28T04:40:11.060Z,1324
2018-04-28T04:41:12.476Z,1300
2018-04-28T04:42:13.904Z,1284
2018-04-28T04:43:15.372Z,1288
2018-04-28T04:44:16.850Z,1292
2018-04-28T04:45:18.364Z,1360
2018-04-28T04:46:19.776Z,1396
2018-04-28T04:47:21.222Z,1484
2018-04-28T04:48:22.643Z,1604
2018-04-28T04:49:24.079Z,1632
2018-04-28T04:50:25.489Z,1720
2018-04-28T04:51:27.032Z,1836
2018-04-28T04:52:28.372Z,1948
2018-04-28T04:53:29.848Z,2036
2018-04-28T04:54:31.276Z,2128
2018-04-28T04:55:32.665Z,2356
2018-04-28T04:56:34.103Z,2696
2018-04-28T04:57:35.564Z,2860
2018-04-28T04:58:36.988Z,2884
2018-04-28T04:59:38.462Z,3200
2018-04-28T05:00:39.903Z,3344
2018-04-28T05:01:41.334Z,3244
2018-04-28T05:02:42.810Z,3484
2018-04-28T05:03:44.261Z,3496
2018-04-28T05:04:45.699Z,3504
2018-04-28T05:05:47.121Z,3624
2018-04-28T05:06:48.623Z,3352
2018-04-28T05:07:50.122Z,3484
2018-04-28T05:08:51.562Z,3076
2018-04-28T05:09:53.068Z,3588
2018-04-28T05:10:54.484Z,3668
2018-04-28T05:11:55.915Z,3592
2018-04-28T05:12:57.415Z,3144
2018-04-28T05:13:58.850Z,2948
2018-04-28T05:15:00.360Z,2908
2018-04-28T05:16:01.833Z,2876
2018-04-28T05:17:03.253Z,2880
2018-04-28T05:18:04.817Z,2948
2018-04-28T05:19:06.283Z,3120
2018-04-28T05:20:07.744Z,3292
2018-04-28T05:21:09.243Z,3312
2018-04-28T05:22:10.731Z,3556
2018-04-28T05:23:12.184Z,3724
2018-04-28T05:24:13.618Z,3508
2018-04-28T05:25:15.056Z,3480
2018-04-28T05:26:16.476Z,3492
2018-04-28T05:27:17.942Z,3532
2018-04-28T05:28:19.367Z,3680
2018-04-28T05:29:20.808Z,4748
2018-04-28T05:30:22.244Z,4780
2018-04-28T05:31:23.722Z,4832
2018-04-28T05:32:25.131Z,5000
2018-04-28T05:33:26.542Z,5044
2018-04-28T05:34:27.961Z,5168
2018-04-28T05:35:29.397Z,5464
2018-04-28T05:36:30.844Z,5212
2018-04-28T05:37:32.321Z,5272
2018-04-28T05:38:33.706Z,5348
2018-04-28T05:39:35.168Z,5412
2018-04-28T05:40:36.595Z,5548
2018-04-28T05:41:38.047Z,6040
2018-04-28T05:42:39.452Z,6992
2018-04-28T05:43:40.891Z,7020
2018-04-28T05:44:42.349Z,7152
2018-04-28T05:45:43.773Z,7272
2018-04-28T05:46:45.190Z,7384
2018-04-28T05:47:46.671Z,7504
2018-04-28T05:48:48.152Z,7660
2018-04-28T05:49:49.589Z,7756
2018-04-28T05:50:51.075Z,7708
2018-04-28T05:51:52.506Z,7624
2018-04-28T05:52:53.968Z,5992
2018-04-28T05:53:55.399Z,7924
2018-04-28T05:54:56.816Z,8008
2018-04-28T05:55:58.214Z,8156
2018-04-28T05:56:59.632Z,7476
2018-04-28T05:58:01.067Z,7932
2018-04-28T05:59:02.452Z,7592
2018-04-28T06:00:03.868Z,7820
2018-04-28T06:01:05.251Z,8436
2018-04-28T06:02:06.683Z,8832
2018-04-28T06:03:08.122Z,6780
2018-04-28T06:04:09.558Z,8440
2018-04-28T06:05:10.946Z,8320
2018-04-28T06:06:12.405Z,7032
2018-04-28T06:07:13.844Z,8756
2018-04-28T06:08:15.322Z,8736
2018-04-28T06:09:16.713Z,9396
2018-04-28T06:10:18.148Z,9456
2018-04-28T06:11:19.575Z,9716
2018-04-28T06:12:21.004Z,9796
2018-04-28T06:13:22.417Z,9772
2018-04-28T06:14:23.837Z,9740
2018-04-28T06:15:25.256Z,10020
2018-04-28T06:16:26.679Z,9928
2018-04-28T06:17:28.105Z,9744
2018-04-28T06:18:29.535Z,8404
2018-04-28T06:19:31.009Z,7876
2018-04-28T06:20:32.436Z,8852
2018-04-28T06:21:33.857Z,10332
2018-04-28T06:22:35.297Z,10472
2018-04-28T06:23:36.758Z,10736
2018-04-28T06:24:38.243Z,10608
2018-04-28T06:25:39.642Z,11216
2018-04-28T06:26:41.091Z,11552
2018-04-28T06:27:42.560Z,10804
2018-04-28T06:28:43.977Z,10940
2018-04-28T06:29:45.432Z,10712
2018-04-28T06:30:46.905Z,11020
2018-04-28T06:31:48.445Z,12352
2018-04-28T06:32:49.981Z,12780
2018-04-28T06:33:51.694Z,11472
2018-04-28T06:34:53.249Z,11304
2018-04-28T06:35:54.733Z,13524
2018-04-28T06:36:56.221Z,13540
2018-04-28T06:37:58.111Z,13648
2018-04-28T06:38:59.789Z,12172
2018-04-28T06:40:01.243Z,11932
2018-04-28T06:41:02.800Z,11912
2018-04-28T06:42:04.555Z,12360
2018-04-28T06:43:06.279Z,15008
2018-04-28T06:44:08.015Z,15072
2018-04-28T06:45:09.918Z,13112
2018-04-28T06:46:11.496Z,14424
2018-04-28T06:47:13.250Z,15840
2018-04-28T06:48:14.717Z,15264
2018-04-28T06:49:16.170Z,14284
2018-04-28T06:50:17.650Z,14752
2018-04-28T06:51:19.158Z,14880
2018-04-28T06:52:20.645Z,14248
2018-04-28T06:53:22.090Z,13556
2018-04-28T06:54:23.614Z,14880
2018-04-28T06:55:25.023Z,13836
2018-04-28T06:56:26.503Z,13748
2018-04-28T06:57:27.962Z,14680
2018-04-28T06:58:29.559Z,15648
2018-04-28T06:59:30.949Z,13336
2018-04-28T07:00:32.396Z,15424
2018-04-28T07:01:33.972Z,16960
2018-04-28T07:02:35.506Z,18048
2018-04-28T07:03:36.971Z,17152
2018-04-28T07:04:38.652Z,16512
2018-04-28T07:05:40.120Z,17536
2018-04-28T07:06:41.605Z,16352
2018-04-28T07:07:43.180Z,17888
2018-04-28T07:08:44.638Z,21536
2018-04-28T07:09:46.161Z,22336
2018-04-28T07:10:47.645Z,22400
2018-04-28T07:11:49.127Z,22176
2018-04-28T07:12:50.635Z,27264
2018-04-28T07:13:52.144Z,29888
2018-04-28T07:14:53.874Z,35712
2018-04-28T07:15:55.632Z,41888
2018-04-28T07:16:57.136Z,41440
2018-04-28T07:17:58.629Z,48416
2018-04-28T07:19:00.161Z,55488
2018-04-28T07:20:01.651Z,72384
2018-04-28T07:21:03.228Z,70464
2018-04-28T07:22:04.735Z,66208
2018-04-28T07:23:06.157Z,66272
2018-04-28T07:24:07.643Z,55840
2018-04-28T07:25:09.392Z,47712
2018-04-28T07:26:10.886Z,43648
2018-04-28T07:27:12.345Z,39968
2018-04-28T07:28:13.811Z,46112
2018-04-28T07:29:15.449Z,31840
2018-04-28T07:30:16.983Z,38848
2018-04-28T07:31:18.459Z,20480
2018-04-28T07:32:19.879Z,18848
2018-04-28T07:33:21.347Z,17760
2018-04-28T07:34:22.808Z,17728
2018-04-28T07:35:24.348Z,15552
2018-04-28T07:36:25.746Z,14844
2018-04-28T07:37:27.210Z,14576
2018-04-28T07:38:28.705Z,14468
2018-04-28T07:39:30.184Z,13112
2018-04-28T07:40:31.799Z,12236
2018-04-28T07:41:33.247Z,13228
2018-04-28T07:42:34.854Z,14140
2018-04-28T07:43:36.601Z,14536
2018-04-28T07:44:38.110Z,14820
2018-04-28T07:45:39.557Z,14968
2018-04-28T07:46:41.065Z,15488
2018-04-28T07:47:42.544Z,14976
2018-04-28T07:48:44.032Z,14004
2018-04-28T07:49:45.531Z,13352
2018-04-28T07:50:47.003Z,13356
2018-04-28T07:51:48.475Z,13188
2018-04-28T07:52:49.975Z,12788
2018-04-28T07:53:51.413Z,12964
2018-04-28T07:54:52.900Z,13000
2018-04-28T07:55:54.336Z,13172
2018-04-28T07:56:56.007Z,13212
2018-04-28T07:57:57.503Z,13584
2018-04-28T07:58:59.210Z,14068
2018-04-28T08:00:00.880Z,13980
2018-04-28T08:01:02.508Z,13204
2018-04-28T08:02:04.026Z,12312
2018-04-28T08:03:05.510Z,12292
2018-04-28T08:04:06.951Z,12476
2018-04-28T08:05:08.483Z,12264
2018-04-28T08:06:09.910Z,12884
2018-04-28T08:07:11.370Z,13040
2018-04-28T08:08:12.872Z,13740
2018-04-28T08:09:14.430Z,14692
2018-04-28T08:10:15.963Z,15204
2018-04-28T08:11:17.489Z,16224
2018-04-28T08:12:18.935Z,16032
2018-04-28T08:13:20.545Z,15552
2018-04-28T08:14:22.003Z,16000
2018-04-28T08:15:23.449Z,16544
2018-04-28T08:16:24.940Z,17248
2018-04-28T08:17:26.455Z,18400
2018-04-28T08:18:27.916Z,18880
2018-04-28T08:19:29.418Z,18656
2018-04-28T08:20:30.904Z,18560
2018-04-28T08:21:32.355Z,17888
2018-04-28T08:22:33.864Z,17856
2018-04-28T08:23:35.343Z,18272
2018-04-28T08:24:36.808Z,19840
2018-04-28T08:25:38.537Z,20384
2018-04-28T08:26:40.066Z,20928
2018-04-28T08:27:41.622Z,21024
2018-04-28T08:28:43.117Z,20288
2018-04-28T08:29:44.612Z,20448
2018-04-28T08:30:46.194Z,21344
2018-04-28T08:31:47.681Z,23456
2018-04-28T08:32:49.154Z,23776
2018-04-28T08:33:50.845Z,23840
2018-04-28T08:34:52.553Z,24192
2018-04-28T08:35:54.081Z,24640
2018-04-28T08:36:55.643Z,24064
2018-04-28T08:37:57.066Z,22432
2018-04-28T08:38:58.561Z,22464
2018-04-28T08:39:59.986Z,22272
2018-04-28T08:41:01.547Z,22464
2018-04-28T08:42:02.997Z,22944
2018-04-28T08:43:04.515Z,23680
2018-04-28T08:44:05.944Z,24800
2018-04-28T08:45:07.446Z,24928
2018-04-28T08:46:09.058Z,26752
2018-04-28T08:47:10.758Z,28192
2018-04-28T08:48:12.236Z,27424
2018-04-28T08:49:13.704Z,30112
2018-04-28T08:50:15.174Z,30752
2018-04-28T08:51:16.636Z,29568
2018-04-28T08:52:18.144Z,30336
2018-04-28T08:53:19.676Z,29088
2018-04-28T08:54:21.392Z,29824
2018-04-28T08:55:22.973Z,32992
2018-04-28T08:56:24.471Z,33696
2018-04-28T08:57:25.935Z,31232
2018-04-28T08:58:27.348Z,31488
2018-04-28T08:59:29.003Z,28160
2018-04-28T09:00:30.510Z,27808
2018-04-28T09:01:32.072Z,29088
2018-04-28T09:02:33.589Z,26368
2018-04-28T09:03:35.175Z,24480
2018-04-28T09:04:36.666Z,20480
2018-04-28T09:05:38.104Z,22560
2018-04-28T09:06:39.676Z,24704
2018-04-28T09:07:41.136Z,23904
2018-04-28T09:08:42.610Z,29888
2018-04-28T09:09:44.240Z,68640
2018-04-28T09:10:45.920Z,76448
2018-04-28T09:11:47.616Z,82464
2018-04-28T09:12:49.356Z,25376
2018-04-28T09:13:50.900Z,23136
2018-04-28T09:14:52.405Z,27232
2018-04-28T09:15:53.980Z,37152
2018-04-28T09:16:55.725Z,25344
2018-04-28T09:17:57.198Z,41984
2018-04-28T09:18:58.728Z,25312
2018-04-28T09:20:00.298Z,59424
2018-04-28T09:21:01.982Z,91360
2018-04-28T09:22:03.451Z,93824
2018-04-28T09:23:04.969Z,90432
2018-04-28T09:24:06.628Z,85984
2018-04-28T09:25:08.348Z,88448
2018-04-28T09:26:10.127Z,86592
2018-04-28T09:27:11.577Z,21568
2018-04-28T09:28:13.072Z,67840
2018-04-28T09:29:14.655Z,50880
2018-04-28T09:30:16.170Z,74976
2018-04-28T09:31:17.719Z,45376
2018-04-28T09:32:19.385Z,24544
2018-04-28T09:33:20.844Z,82592
2018-04-28T09:34:22.345Z,90624
2018-04-28T09:35:24.004Z,65856
2018-04-28T09:36:25.684Z,44992
2018-04-28T09:37:27.297Z,61856
2018-04-28T09:38:28.809Z,31360
2018-04-28T09:39:30.292Z,43072
2018-04-28T09:40:31.804Z,27520
2018-04-28T09:41:33.239Z,42400
2018-04-28T09:42:34.794Z,45984
2018-04-28T09:43:36.272Z,51040
2018-04-28T09:44:37.709Z,45984
2018-04-28T09:45:39.147Z,44320
2018-04-28T09:46:40.593Z,34592
2018-04-28T09:47:42.068Z,28288
2018-04-28T09:48:43.617Z,59776
2018-04-28T09:49:45.229Z,82464
2018-04-28T09:50:46.704Z,68896
2018-04-28T09:51:48.281Z,99520
2018-04-28T09:52:49.898Z,91744
2018-04-28T09:53:51.669Z,98944
2018-04-28T09:54:53.475Z,89952
2018-04-28T09:55:55.004Z,85152
2018-04-28T09:56:56.464Z,86496
2018-04-28T09:57:57.941Z,84256
2018-04-28T09:58:59.601Z,88160
2018-04-28T10:00:01.307Z,88608
2018-04-28T10:01:02.866Z,86464
2018-04-28T10:02:04.301Z,86720
2018-04-28T10:03:05.961Z,92192
2018-04-28T10:04:07.420Z,92960
2018-04-28T10:05:08.906Z,44032
2018-04-28T10:06:10.417Z,24800
2018-04-28T10:07:12.033Z,32512
2018-04-28T10:08:13.778Z,27968
2018-04-28T10:09:15.255Z,25088
2018-04-28T10:10:16.770Z,25856
2018-04-28T10:11:18.223Z,27264
2018-04-28T10:12:19.693Z,32544
2018-04-28T10:13:21.146Z,34208
2018-04-28T10:14:22.615Z,27520
2018-04-28T10:15:24.103Z,24672
2018-04-28T10:16:25.567Z,22208
2018-04-28T10:17:27.021Z,32096
2018-04-28T10:18:28.760Z,99104
2018-04-28T10:19:30.280Z,21568
2018-04-28T10:20:31.722Z,21312
2018-04-28T10:21:33.188Z,20768
2018-04-28T10:22:34.638Z,20256
2018-04-28T10:23:36.118Z,20608
2018-04-28T10:24:37.596Z,96256
2018-04-28T10:25:39.052Z,98048
2018-04-28T10:26:40.649Z,97152
2018-04-28T10:27:42.151Z,19616
2018-04-28T10:28:43.655Z,97856
2018-04-28T10:29:45.215Z,96576
2018-04-28T10:30:46.855Z,40896
2018-04-28T10:31:48.379Z,95168
2018-04-28T10:32:50.044Z,95008
2018-04-28T10:33:51.632Z,72480
2018-04-28T10:34:53.131Z,98144
2018-04-28T10:35:54.595Z,84736
2018-04-28T10:36:56.123Z,99008
2018-04-28T10:37:57.611Z,25728
2018-04-28T10:38:59.275Z,25632
2018-04-28T10:40:00.717Z,23712
2018-04-28T10:41:02.230Z,22048
2018-04-28T10:42:03.705Z,19616
2018-04-28T10:43:05.169Z,18400
2018-04-28T10:44:06.601Z,20544
2018-04-28T10:45:08.112Z,26176
2018-04-28T10:46:09.688Z,28416
2018-04-28T10:47:11.163Z,30944
2018-04-28T10:48:12.626Z,35072
2018-04-28T10:49:14.116Z,33440
2018-04-28T10:50:15.557Z,30304
2018-04-28T10:51:17.156Z,27264
2018-04-28T10:52:18.556Z,25344
2018-04-28T10:53:19.989Z,23840
2018-04-28T10:54:21.491Z,21888
2018-04-28T10:55:22.952Z,20320
2018-04-28T10:56:24.398Z,19744
2018-04-28T10:57:25.962Z,19104
2018-04-28T10:58:27.495Z,17920
2018-04-28T10:59:29.018Z,17120
2018-04-28T11:00:30.465Z,18048
2018-04-28T11:01:31.976Z,21952
2018-04-28T11:02:33.409Z,28384
2018-04-28T11:03:34.902Z,24576
2018-04-28T11:04:36.461Z,21344
2018-04-28T11:05:38.041Z,20224
2018-04-28T11:06:39.489Z,17184
2018-04-28T11:07:40.947Z,15200
2018-04-28T11:08:42.387Z,15040
2018-04-28T11:09:43.928Z,15072
2018-04-28T11:10:45.420Z,15872
2018-04-28T11:11:47.497Z,16928
2018-04-28T11:12:48.967Z,18624
2018-04-28T11:13:50.473Z,20448
2018-04-28T11:14:52.019Z,71392
2018-04-28T11:15:53.593Z,32320
2018-04-28T11:16:55.127Z,54592
2018-04-28T11:17:56.603Z,113216
2018-04-28T11:18:58.191Z,115680
2018-04-28T11:19:59.825Z,28480
2018-04-28T11:21:01.310Z,36160
2018-04-28T11:22:02.765Z,109568
2018-04-28T11:23:04.266Z,111648
2018-04-28T11:24:05.784Z,110848
2018-04-28T11:25:07.300Z,112928
2018-04-28T11:26:08.764Z,34144
2018-04-28T11:27:10.291Z,74368
2018-04-28T11:28:11.775Z,39552
2018-04-28T11:29:13.256Z,40384
2018-04-28T11:30:14.776Z,38528
2018-04-28T11:31:16.265Z,86944
2018-04-28T11:32:18.187Z,51264
2018-04-28T11:33:19.596Z,107712
2018-04-28T11:34:21.063Z,104384
2018-04-28T11:35:22.624Z,106048
2018-04-28T11:36:24.168Z,40096
2018-04-28T11:37:25.656Z,48608
2018-04-28T11:38:27.132Z,34624
2018-04-28T11:39:28.622Z,31264
2018-04-28T11:40:30.108Z,32448
2018-04-28T11:41:31.631Z,32704
2018-04-28T11:42:33.117Z,31488
2018-04-28T11:43:34.641Z,31840
2018-04-28T11:44:36.148Z,27232
2018-04-28T11:45:37.653Z,25248
2018-04-28T11:46:39.140Z,22912
2018-04-28T11:47:40.605Z,23360
2018-04-28T11:48:42.130Z,20960
2018-04-28T11:49:43.646Z,21536
2018-04-28T11:50:45.132Z,22400
2018-04-28T11:51:46.707Z,23008
2018-04-28T11:52:48.232Z,20576
2018-04-28T11:53:49.849Z,18816
2018-04-28T11:54:51.282Z,17376
2018-04-28T11:55:52.746Z,16736
2018-04-28T11:56:54.303Z,17376
2018-04-28T11:57:55.718Z,17952
2018-04-28T11:58:57.196Z,18112
2018-04-28T11:59:58.529Z,19040
2018-04-28T12:00:59.979Z,22240
2018-04-28T12:02:01.455Z,28576
2018-04-28T12:03:02.966Z,27424
2018-04-28T12:04:04.550Z,27552
2018-04-28T12:05:06.003Z,27392
2018-04-28T12:06:07.503Z,27360
2018-04-28T12:07:09.049Z,30624
2018-04-28T12:08:10.482Z,33440
2018-04-28T12:09:11.949Z,27168
2018-04-28T12:10:13.432Z,25600
2018-04-28T12:11:15.126Z,24608
2018-04-28T12:12:16.654Z,94528
2018-04-28T12:13:18.112Z,56096
2018-04-28T12:14:19.569Z,108160
2018-04-28T12:15:20.983Z,100384
2018-04-28T12:16:22.471Z,29632
2018-04-28T12:17:24.106Z,25248
2018-04-28T12:18:25.577Z,23680
2018-04-28T12:19:27.035Z,21760
2018-04-28T12:20:28.510Z,20096
2018-04-28T12:21:29.964Z,18944
2018-04-28T12:22:31.492Z,17376
2018-04-28T12:23:32.971Z,16640
2018-04-28T12:24:34.568Z,41504
2018-04-28T12:25:36.038Z,38272
2018-04-28T12:26:37.527Z,26336
2018-04-28T12:27:39.022Z,23744
2018-04-28T12:28:40.452Z,21056
2018-04-28T12:29:42.014Z,19584
2018-04-28T12:30:43.464Z,19552
2018-04-28T12:31:44.894Z,21408
2018-04-28T12:32:46.370Z,25536
2018-04-28T12:33:47.775Z,29088
2018-04-28T12:34:49.253Z,27136
2018-04-28T12:35:50.773Z,25984
2018-04-28T12:36:52.166Z,22144
2018-04-28T12:37:53.599Z,20448
2018-04-28T12:38:55.117Z,21632
2018-04-28T12:39:56.624Z,19360
2018-04-28T12:40:58.042Z,17376
2018-04-28T12:41:59.734Z,16832
2018-04-28T12:43:01.188Z,15936
2018-04-28T12:44:02.622Z,15128
2018-04-28T12:45:04.039Z,14412
2018-04-28T12:46:05.551Z,13416
2018-04-28T12:47:07.654Z,13156
2018-04-28T12:48:09.706Z,12888
2018-04-28T12:49:11.166Z,12612
2018-04-28T12:50:12.611Z,19296
2018-04-28T12:51:14.212Z,13816
2018-04-28T12:52:15.736Z,14236
2018-04-28T12:53:17.525Z,15024
2018-04-28T12:54:19.303Z,13932
2018-04-28T12:55:21.052Z,13300
2018-04-28T12:56:22.798Z,13628
2018-04-28T12:57:24.608Z,17568
2018-04-28T12:58:26.310Z,20448
2018-04-28T12:59:28.103Z,36512
2018-04-28T13:00:29.762Z,39488
2018-04-28T13:01:31.258Z,25472
2018-04-28T13:02:32.824Z,116128
2018-04-28T13:03:34.667Z,30976
2018-04-28T13:04:36.392Z,117184
2018-04-28T13:05:38.067Z,69984
2018-04-28T13:06:39.866Z,23552
2018-04-28T13:07:41.684Z,17376
2018-04-28T13:08:43.380Z,16160
2018-04-28T13:09:45.125Z,15904
2018-04-28T13:10:46.992Z,14836
2018-04-28T13:11:48.604Z,14828
2018-04-28T13:12:50.355Z,14996
2018-04-28T13:13:52.162Z,14276
2018-04-28T13:14:53.942Z,13928
2018-04-28T13:15:55.755Z,13024
2018-04-28T13:16:57.404Z,12624
2018-04-28T13:17:59.156Z,13188
2018-04-28T13:19:00.814Z,12636
2018-04-28T13:20:02.602Z,13012
2018-04-28T13:21:04.330Z,13692
2018-04-28T13:22:06.083Z,14564
2018-04-28T13:23:07.880Z,15036
2018-04-28T13:24:09.683Z,15456
2018-04-28T13:25:11.301Z,16576
2018-04-28T13:26:13.006Z,38528
2018-04-28T13:27:14.869Z,24064
2018-04-28T13:28:16.542Z,20064
2018-04-28T13:29:18.386Z,18048
2018-04-28T13:30:20.078Z,17792
2018-04-28T13:31:21.840Z,17280
2018-04-28T13:32:23.604Z,16768
2018-04-28T13:33:25.422Z,16736
2018-04-28T13:34:27.135Z,16160
2018-04-28T13:35:28.965Z,14904
2018-04-28T13:36:30.659Z,13336
2018-04-28T13:37:32.427Z,12120
2018-04-28T13:38:34.205Z,10892
2018-04-28T13:39:35.962Z,10432
2018-04-28T13:40:37.580Z,10940
2018-04-28T13:41:39.298Z,11584
2018-04-28T13:42:41.025Z,11876
2018-04-28T13:43:42.763Z,12344
2018-04-28T13:44:44.588Z,13344
2018-04-28T13:45:46.352Z,14828
2018-04-28T13:46:48.136Z,17312
2018-04-28T13:47:49.808Z,19264